Time;durP1;ratioP1;P1;durP2;ratioP2;P2;SDS_P1;SDS_P2;PMS_P1;PMS_P2;Temp;Humidity;BMP_temperature;BMP_pressure;BME280_temperature;BME280_humidity;BME280_pressure;Samples;Min_cycle;Max_cycle;Signal;HPM_P1;HPM_P2
2023/08/06 00:02:23;;;;;;;6.97;2.75;;;15.20;99.90;;;;;;5049884;28;20048;-75
2023/08/06 00:04:48;;;;;;;10.75;3.58;;;15.30;99.90;;;;;;5049687;28;20029;-76
2023/08/06 00:07:14;;;;;;;4.90;3.40;;;15.30;99.90;;;;;;5058242;28;20036;-75
2023/08/06 00:09:39;;;;;;;7.70;3.08;;;15.30;99.90;;;;;;5064820;28;20153;-74
2023/08/06 00:12:05;;;;;;;5.25;3.40;;;15.30;99.90;;;;;;5060515;28;20115;-76
2023/08/06 00:14:31;;;;;;;9.18;3.20;;;15.30;99.90;;;;;;5047904;28;20116;-75
2023/08/06 00:16:56;;;;;;;6.15;2.85;;;15.30;99.90;;;;;;5030762;28;20033;-75
2023/08/06 00:19:22;;;;;;;8.50;2.63;;;15.30;99.90;;;;;;5040959;28;20033;-76
2023/08/06 00:21:47;;;;;;;6.78;2.90;;;15.40;99.90;;;;;;5061120;28;20040;-75
2023/08/06 00:24:13;;;;;;;4.15;2.70;;;15.40;99.90;;;;;;5055685;28;20100;-75
2023/08/06 00:26:39;;;;;;;4.32;2.33;;;15.40;99.90;;;;;;5051124;28;20064;-76
2023/08/06 00:29:04;;;;;;;5.32;2.38;;;15.40;99.90;;;;;;5054588;28;20025;-75
2023/08/06 00:31:30;;;;;;;6.03;3.40;;;15.40;99.90;;;;;;5049429;28;20082;-76
2023/08/06 00:33:55;;;;;;;4.72;2.45;;;15.40;99.90;;;;;;5056506;28;20020;-75
2023/08/06 00:36:21;;;;;;;12.63;3.42;;;15.40;99.90;;;;;;5061242;28;20032;-75
2023/08/06 00:38:46;;;;;;;4.82;2.88;;;15.40;99.90;;;;;;5051456;28;20029;-75
2023/08/06 00:41:12;;;;;;;7.95;2.35;;;15.40;99.90;;;;;;5049078;28;20104;-76
2023/08/06 00:43:37;;;;;;;8.50;2.67;;;15.40;99.90;;;;;;5053588;28;20020;-76
2023/08/06 00:46:03;;;;;;;7.10;2.33;;;15.40;99.90;;;;;;5051755;28;20400;-76
2023/08/06 00:48:29;;;;;;;4.53;2.47;;;15.40;99.90;;;;;;5039911;28;20040;-76
2023/08/06 00:50:54;;;;;;;5.60;2.92;;;15.40;99.90;;;;;;5052936;28;20385;-75
2023/08/06 00:53:20;;;;;;;4.63;2.35;;;15.40;99.90;;;;;;5050227;28;20039;-75
2023/08/06 00:55:47;;;;;;;4.88;2.40;;;15.40;99.90;;;;;;5047425;28;20029;-76
2023/08/06 00:58:15;;;;;;;3.45;2.33;;;15.40;99.90;;;;;;5057094;28;20029;-75
2023/08/06 01:00:40;;;;;;;4.13;2.15;;;15.40;99.90;;;;;;5049140;28;20370;-76
2023/08/06 01:03:06;;;;;;;3.60;2.10;;;15.50;99.90;;;;;;5065296;28;20056;-75
2023/08/06 01:05:32;;;;;;;4.88;1.95;;;15.40;99.90;;;;;;5018929;28;20037;-75
2023/08/06 01:08:23;;;;;;;5.65;2.55;;;15.50;99.90;;;;;;5054736;28;20068;-75
2023/08/06 01:11:20;;;;;;;2.50;1.63;;;15.50;99.90;;;;;;5046984;28;20028;-75
2023/08/06 01:13:49;;;;;;;4.10;2.20;;;15.50;99.90;;;;;;5052346;28;20028;-75
2023/08/06 01:16:20;;;;;;;5.25;2.35;;;15.40;99.90;;;;;;5051856;28;20127;-75
2023/08/06 01:18:49;;;;;;;3.50;1.88;;;15.40;99.90;;;;;;5069716;28;20040;-76
2023/08/06 01:21:15;;;;;;;3.92;2.17;;;15.40;99.90;;;;;;5052382;28;20028;-75
2023/08/06 01:23:44;;;;;;;4.30;2.42;;;15.40;99.90;;;;;;5050858;28;20080;-75
2023/08/06 01:26:36;;;;;;;3.95;2.05;;;15.40;99.90;;;;;;5057918;28;20037;-75
2023/08/06 01:29:22;;;;;;;5.85;2.10;;;15.40;99.90;;;;;;5055256;28;20567;-75
2023/08/06 01:31:50;;;;;;;5.05;2.58;;;15.40;99.90;;;;;;5052053;28;20029;-75
2023/08/06 01:34:24;;;;;;;3.38;2.30;;;15.40;99.90;;;;;;5052249;28;20481;-75
2023/08/06 01:36:51;;;;;;;7.53;2.33;;;15.40;99.90;;;;;;5060179;28;20982;-76
2023/08/06 01:39:16;;;;;;;6.70;2.58;;;15.40;99.90;;;;;;5052572;28;20043;-75
2023/08/06 01:41:42;;;;;;;4.32;2.70;;;15.30;99.90;;;;;;5054850;28;20025;-75
2023/08/06 01:44:07;;;;;;;5.55;2.47;;;15.30;99.90;;;;;;5052411;28;20029;-75
2023/08/06 01:46:33;;;;;;;5.38;3.35;;;15.30;99.90;;;;;;5051892;28;20516;-76
2023/08/06 01:48:59;;;;;;;7.57;2.92;;;15.30;99.90;;;;;;5052313;28;20033;-75
2023/08/06 01:51:24;;;;;;;5.85;3.13;;;15.30;99.90;;;;;;5052716;28;20058;-75
2023/08/06 01:53:50;;;;;;;6.05;3.13;;;15.30;99.90;;;;;;5052608;28;20021;-75
2023/08/06 01:56:15;;;;;;;5.55;3.20;;;15.30;99.90;;;;;;5049508;28;20029;-75
2023/08/06 01:58:41;;;;;;;6.90;3.00;;;15.20;99.90;;;;;;5073443;28;20035;-75
2023/08/06 02:01:06;;;;;;;7.15;2.88;;;15.30;99.90;;;;;;5073314;28;20052;-75
2023/08/06 02:03:32;;;;;;;4.90;2.83;;;15.30;99.90;;;;;;5070485;28;20431;-75
2023/08/06 02:05:57;;;;;;;7.88;3.42;;;15.30;99.90;;;;;;5060832;28;20392;-75
2023/08/06 02:08:23;;;;;;;4.38;2.95;;;15.20;99.90;;;;;;5059512;28;20469;-75
2023/08/06 02:10:49;;;;;;;7.10;3.47;;;15.30;99.90;;;;;;5050193;28;20029;-75
2023/08/06 02:13:14;;;;;;;5.88;3.40;;;15.20;99.90;;;;;;5062862;28;20247;-75
2023/08/06 02:15:44;;;;;;;4.40;2.70;;;15.30;99.90;;;;;;5050144;28;20024;-75
2023/08/06 02:18:09;;;;;;;6.50;3.65;;;15.30;99.90;;;;;;5052737;28;20032;-75
2023/08/06 02:20:35;;;;;;;5.07;3.92;;;15.30;99.90;;;;;;5052238;28;20025;-75
2023/08/06 02:23:00;;;;;;;5.10;3.60;;;15.20;99.90;;;;;;5065320;28;20491;-75
2023/08/06 02:25:26;;;;;;;4.18;3.25;;;15.30;99.90;;;;;;5052344;28;20508;-75
2023/08/06 02:27:51;;;;;;;7.82;3.40;;;15.30;99.90;;;;;;5051442;28;20041;-75
2023/08/06 02:30:17;;;;;;;5.97;2.97;;;15.30;99.90;;;;;;5066333;28;20028;-75
2023/08/06 02:32:42;;;;;;;6.45;3.97;;;15.20;99.90;;;;;;5026605;28;20080;-75
2023/08/06 02:35:08;;;;;;;5.18;3.28;;;15.30;99.90;;;;;;5045323;28;20087;-75
2023/08/06 02:37:34;;;;;;;8.23;3.97;;;15.30;99.90;;;;;;5072043;28;20025;-75
2023/08/06 02:40:00;;;;;;;8.40;3.90;;;15.30;99.90;;;;;;5062083;28;20029;-76
2023/08/06 02:42:26;;;;;;;4.35;3.47;;;15.30;99.90;;;;;;5051481;28;20033;-75
2023/08/06 02:44:54;;;;;;;6.53;3.55;;;15.30;99.90;;;;;;5058237;28;20354;-75
2023/08/06 02:47:20;;;;;;;6.97;3.90;;;15.30;99.90;;;;;;5065003;28;20131;-75
2023/08/06 02:49:46;;;;;;;6.78;3.88;;;15.30;99.90;;;;;;5065930;28;20108;-75
2023/08/06 02:52:11;;;;;;;6.82;3.90;;;15.30;99.90;;;;;;5060031;28;20028;-75
2023/08/06 02:54:37;;;;;;;8.75;4.95;;;15.30;99.90;;;;;;5056998;28;20361;-75
2023/08/06 02:57:02;;;;;;;6.35;4.22;;;15.20;99.90;;;;;;5052397;28;20138;-75
2023/08/06 02:59:28;;;;;;;9.18;4.75;;;15.20;99.90;;;;;;5060210;28;20048;-75
2023/08/06 03:01:53;;;;;;;6.25;4.43;;;15.20;99.90;;;;;;5052734;28;20049;-75
2023/08/06 03:04:19;;;;;;;6.50;5.60;;;15.20;99.90;;;;;;5064311;28;20100;-75
2023/08/06 03:06:44;;;;;;;7.35;4.68;;;15.20;99.90;;;;;;5051387;28;20101;-75
2023/08/06 03:09:10;;;;;;;7.38;4.78;;;15.20;99.90;;;;;;5052334;28;20580;-75
2023/08/06 03:11:35;;;;;;;10.48;5.35;;;15.10;99.90;;;;;;5051535;28;20100;-75
2023/08/06 03:14:01;;;;;;;6.95;4.70;;;15.20;99.90;;;;;;5051206;28;20040;-75
2023/08/06 03:16:27;;;;;;;10.13;5.93;;;15.20;99.90;;;;;;5051036;28;20025;-75
2023/08/06 03:18:52;;;;;;;11.48;6.57;;;15.20;99.90;;;;;;5034650;28;20033;-75
2023/08/06 03:21:18;;;;;;;10.40;6.72;;;15.20;99.90;;;;;;5054329;28;20040;-75
2023/08/06 03:23:46;;;;;;;11.38;7.18;;;15.20;99.90;;;;;;5058850;28;20048;-75
2023/08/06 03:26:11;;;;;;;13.90;7.38;;;15.20;99.90;;;;;;5056434;28;20531;-75
2023/08/06 03:28:37;;;;;;;11.80;8.45;;;15.20;99.90;;;;;;5058682;28;20033;-75
2023/08/06 03:31:03;;;;;;;11.07;8.50;;;15.20;99.90;;;;;;5051082;28;20103;-75
2023/08/06 03:33:30;;;;;;;11.38;8.25;;;15.20;99.90;;;;;;5051841;28;20117;-75
2023/08/06 03:35:56;;;;;;;11.85;9.20;;;15.20;99.90;;;;;;5058565;28;20087;-75
2023/08/06 03:38:22;;;;;;;15.65;10.15;;;15.20;99.90;;;;;;5057180;28;20025;-75
2023/08/06 03:40:48;;;;;;;14.10;9.50;;;15.20;99.90;;;;;;5049564;28;20029;-75
2023/08/06 03:43:14;;;;;;;13.95;10.70;;;15.20;99.90;;;;;;5048847;28;20052;-75
2023/08/06 03:45:40;;;;;;;15.82;10.27;;;15.20;99.90;;;;;;5055395;28;20070;-75
2023/08/06 03:48:06;;;;;;;13.15;10.13;;;15.20;99.90;;;;;;5052383;28;20059;-75
2023/08/06 03:50:32;;;;;;;14.48;11.48;;;15.20;99.90;;;;;;5059187;28;20056;-75
2023/08/06 03:52:57;;;;;;;14.90;10.02;;;15.20;99.90;;;;;;5066992;28;20440;-75
2023/08/06 03:55:23;;;;;;;17.20;12.05;;;15.20;99.90;;;;;;5046767;28;20021;-75
2023/08/06 03:57:48;;;;;;;19.73;12.15;;;15.20;99.90;;;;;;5031847;28;20033;-75
2023/08/06 04:00:14;;;;;;;17.52;11.70;;;15.20;99.90;;;;;;5045005;28;20103;-75
2023/08/06 04:02:39;;;;;;;17.52;11.88;;;15.20;99.90;;;;;;5059007;28;20031;-75
2023/08/06 04:05:05;;;;;;;14.80;11.20;;;15.20;99.90;;;;;;5048419;28;20037;-75
2023/08/06 04:07:30;;;;;;;17.52;12.70;;;15.30;99.90;;;;;;5053858;28;20043;-75
2023/08/06 04:10:02;;;;;;;16.38;11.75;;;15.20;99.90;;;;;;5067313;28;20063;-75
2023/08/06 04:12:28;;;;;;;19.58;12.30;;;15.20;99.90;;;;;;5051237;28;20033;-75
2023/08/06 04:14:54;;;;;;;17.90;12.43;;;15.20;99.90;;;;;;5031493;28;20029;-75
2023/08/06 04:17:20;;;;;;;14.68;11.60;;;15.20;99.90;;;;;;5060738;28;20028;-75
2023/08/06 04:19:50;;;;;;;17.77;12.95;;;15.30;99.90;;;;;;5060888;28;20385;-75
2023/08/06 04:22:16;;;;;;;17.85;12.52;;;15.30;99.90;;;;;;5054969;28;20078;-75
2023/08/06 04:24:43;;;;;;;18.55;12.23;;;15.30;99.90;;;;;;5028609;28;20430;-75
2023/08/06 04:27:09;;;;;;;16.77;12.57;;;15.30;99.90;;;;;;5050581;28;20025;-75
2023/08/06 04:29:35;;;;;;;20.33;13.10;;;15.30;99.90;;;;;;5050058;28;20025;-75
2023/08/06 04:32:01;;;;;;;17.60;13.93;;;15.30;99.90;;;;;;5063184;28;20474;-75
2023/08/06 04:34:26;;;;;;;19.77;13.57;;;15.30;99.90;;;;;;5066332;28;20567;-75
2023/08/06 04:36:52;;;;;;;19.95;14.07;;;15.30;99.90;;;;;;5049600;28;20013;-75
2023/08/06 04:39:17;;;;;;;19.88;13.55;;;15.30;99.90;;;;;;5058203;28;20068;-75
2023/08/06 04:41:43;;;;;;;21.35;14.02;;;15.40;99.90;;;;;;5067760;28;20024;-75
2023/08/06 04:44:08;;;;;;;19.75;14.93;;;15.40;99.90;;;;;;5054529;28;20105;-75
2023/08/06 04:46:34;;;;;;;21.30;14.68;;;15.40;99.90;;;;;;5046775;28;20496;-75
2023/08/06 04:48:59;;;;;;;21.67;14.32;;;15.40;99.90;;;;;;5052218;28;20044;-75
2023/08/06 04:51:25;;;;;;;21.48;14.52;;;15.40;99.90;;;;;;5051090;28;20033;-75
2023/08/06 04:53:50;;;;;;;18.33;14.88;;;15.50;99.90;;;;;;5065168;28;20021;-75
2023/08/06 04:56:16;;;;;;;21.45;14.80;;;15.50;99.90;;;;;;5064685;28;20370;-75
2023/08/06 04:58:41;;;;;;;18.38;14.60;;;15.50;99.90;;;;;;5053287;28;20514;-75
2023/08/06 05:01:07;;;;;;;22.45;15.75;;;15.60;99.90;;;;;;5057483;28;20614;-74
2023/08/06 05:03:33;;;;;;;18.20;13.98;;;15.50;99.90;;;;;;5052658;28;20064;-74
2023/08/06 05:05:58;;;;;;;19.35;15.38;;;15.60;99.90;;;;;;5051587;28;20037;-74
2023/08/06 05:08:24;;;;;;;25.00;15.35;;;15.60;99.90;;;;;;5055577;28;20086;-75
2023/08/06 05:10:49;;;;;;;21.58;15.65;;;15.70;99.90;;;;;;5060948;28;20028;-74
2023/08/06 05:13:15;;;;;;;20.67;14.57;;;15.70;99.90;;;;;;5055461;28;20033;-74
2023/08/06 05:15:42;;;;;;;20.20;14.88;;;15.80;99.90;;;;;;5055063;28;20047;-75
2023/08/06 05:18:08;;;;;;;23.67;16.27;;;15.80;99.90;;;;;;5070201;28;20017;-74
2023/08/06 05:20:38;;;;;;;25.05;17.10;;;15.80;99.90;;;;;;5054697;28;20033;-75
2023/08/06 05:23:04;;;;;;;24.33;16.58;;;15.80;99.90;;;;;;5065750;28;20029;-73
2023/08/06 05:25:30;;;;;;;27.55;18.13;;;15.90;99.90;;;;;;5027921;28;20038;-74
2023/08/06 05:27:55;;;;;;;25.83;18.50;;;15.90;99.90;;;;;;5062469;28;20052;-73
2023/08/06 05:30:21;;;;;;;23.05;16.33;;;15.90;99.90;;;;;;5047565;28;20154;-75
2023/08/06 05:32:46;;;;;;;24.58;18.00;;;16.00;99.90;;;;;;5064069;28;20396;-73
2023/08/06 05:35:12;;;;;;;24.42;17.77;;;16.10;99.90;;;;;;5052745;28;20040;-73
2023/08/06 05:37:38;;;;;;;25.70;17.23;;;16.10;99.90;;;;;;5055602;28;20017;-74
2023/08/06 05:40:04;;;;;;;25.33;17.92;;;16.10;99.90;;;;;;5045613;28;20025;-74
2023/08/06 05:42:30;;;;;;;25.25;17.00;;;16.20;99.90;;;;;;5048315;28;20028;-74
2023/08/06 05:44:55;;;;;;;27.48;18.48;;;16.30;99.90;;;;;;5049837;28;20041;-74
2023/08/06 05:47:21;;;;;;;31.15;18.92;;;16.30;99.90;;;;;;5051605;28;20421;-74
2023/08/06 05:49:46;;;;;;;27.42;17.77;;;16.40;99.90;;;;;;5052041;28;20377;-74
2023/08/06 05:52:12;;;;;;;29.40;18.38;;;16.50;99.90;;;;;;5044935;28;20377;-74
2023/08/06 05:54:37;;;;;;;25.55;17.60;;;16.50;99.90;;;;;;5048781;28;20447;-73
2023/08/06 05:57:03;;;;;;;25.63;19.23;;;16.50;99.90;;;;;;5047378;28;20072;-74
2023/08/06 05:59:29;;;;;;;26.90;19.08;;;16.60;99.90;;;;;;5051543;28;20037;-74
2023/08/06 06:01:54;;;;;;;22.73;17.73;;;16.70;99.90;;;;;;5040522;28;20047;-74
2023/08/06 06:04:20;;;;;;;22.92;17.73;;;16.70;99.90;;;;;;5050574;28;20033;-74
2023/08/06 06:06:46;;;;;;;23.42;18.02;;;16.70;99.90;;;;;;5057992;28;20033;-74
2023/08/06 06:09:11;;;;;;;24.63;18.83;;;16.80;99.90;;;;;;5044602;28;20033;-74
2023/08/06 06:11:37;;;;;;;23.05;17.98;;;16.80;99.90;;;;;;5052348;28;20025;-73
2023/08/06 06:14:02;;;;;;;24.95;18.73;;;16.80;99.90;;;;;;5054489;28;20056;-74
2023/08/06 06:16:28;;;;;;;23.90;17.33;;;16.80;99.90;;;;;;5052064;28;20382;-74
2023/08/06 06:18:54;;;;;;;25.48;17.73;;;16.90;99.90;;;;;;5066992;28;20052;-74
2023/08/06 06:21:20;;;;;;;24.20;16.38;;;16.90;99.90;;;;;;5059447;28;20542;-74
2023/08/06 06:23:45;;;;;;;23.67;17.15;;;16.90;99.90;;;;;;5057139;28;20098;-74
2023/08/06 06:26:12;;;;;;;23.33;16.40;;;16.90;99.90;;;;;;5032291;28;20043;-75
2023/08/06 06:28:38;;;;;;;23.25;16.88;;;17.00;99.90;;;;;;5055595;28;20099;-74
2023/08/06 06:31:04;;;;;;;22.23;17.73;;;17.00;99.90;;;;;;5061835;28;20635;-75
2023/08/06 06:33:29;;;;;;;21.98;17.10;;;17.00;99.90;;;;;;5071837;28;20475;-75
2023/08/06 06:35:55;;;;;;;22.48;17.17;;;17.10;99.90;;;;;;5054197;28;20143;-74
2023/08/06 06:38:20;;;;;;;21.80;16.50;;;17.10;99.90;;;;;;5053337;28;20036;-74
2023/08/06 06:40:56;;;;;;;20.02;16.58;;;17.10;99.90;;;;;;5052349;28;20104;-74
2023/08/06 06:43:22;;;;;;;21.35;16.45;;;17.10;99.90;;;;;;5057090;28;20041;-75
2023/08/06 06:45:53;;;;;;;23.40;16.60;;;17.10;99.90;;;;;;5036153;28;20119;-75
2023/08/06 06:48:19;;;;;;;22.33;16.48;;;17.10;99.90;;;;;;5045514;28;20057;-75
2023/08/06 06:50:48;;;;;;;22.48;16.52;;;17.10;99.90;;;;;;5046876;28;20829;-75
2023/08/06 06:53:13;;;;;;;23.88;16.67;;;17.20;99.90;;;;;;5044642;28;20017;-75
2023/08/06 06:55:39;;;;;;;22.60;15.43;;;17.20;99.90;;;;;;5049410;28;20027;-74
2023/08/06 06:58:04;;;;;;;22.27;15.43;;;17.20;99.90;;;;;;5048370;28;20119;-74
2023/08/06 07:00:30;;;;;;;18.98;15.48;;;17.20;99.90;;;;;;5050527;28;20068;-75
2023/08/06 07:02:55;;;;;;;18.92;14.57;;;17.30;99.90;;;;;;5046435;28;20036;-75
2023/08/06 07:05:21;;;;;;;18.40;14.23;;;17.30;99.90;;;;;;5046912;28;20045;-75
2023/08/06 07:07:46;;;;;;;21.70;15.25;;;17.40;99.90;;;;;;5042163;28;20473;-75
2023/08/06 07:10:12;;;;;;;23.13;15.43;;;17.50;99.90;;;;;;5047230;28;20505;-74
2023/08/06 07:12:37;;;;;;;18.05;15.05;;;17.40;99.90;;;;;;5045143;28;20156;-75
2023/08/06 07:15:06;;;;;;;17.73;14.27;;;17.40;99.90;;;;;;5041448;28;20104;-75
2023/08/06 07:17:32;;;;;;;17.48;13.43;;;17.40;99.90;;;;;;5027167;28;20025;-76
2023/08/06 07:19:58;;;;;;;20.92;15.23;;;17.30;99.90;;;;;;5041733;28;20025;-75
2023/08/06 07:22:23;;;;;;;17.10;15.00;;;17.20;99.90;;;;;;5043302;28;20119;-75
2023/08/06 07:24:49;;;;;;;20.15;16.25;;;17.00;99.90;;;;;;5041704;28;20485;-75
2023/08/06 07:27:15;;;;;;;21.20;16.30;;;16.90;99.90;;;;;;5043477;28;20128;-75
2023/08/06 07:29:40;;;;;;;20.95;16.98;;;16.80;99.90;;;;;;5047604;28;20067;-74
2023/08/06 07:32:07;;;;;;;24.33;18.02;;;16.70;99.90;;;;;;5041943;28;20033;-75
2023/08/06 07:34:32;;;;;;;25.15;18.50;;;16.60;99.90;;;;;;5047648;28;20029;-74
2023/08/06 07:36:58;;;;;;;23.77;19.95;;;16.50;99.90;;;;;;5043153;28;20392;-74
2023/08/06 07:39:24;;;;;;;25.25;19.65;;;16.40;99.90;;;;;;5046870;28;20033;-74
2023/08/06 07:41:49;;;;;;;24.80;19.60;;;16.30;99.90;;;;;;5054371;28;20028;-75
2023/08/06 07:44:15;;;;;;;27.40;20.00;;;16.30;99.90;;;;;;5048988;28;20519;-74
2023/08/06 07:46:41;;;;;;;23.48;20.58;;;16.30;99.90;;;;;;5041508;28;20045;-74
2023/08/06 07:49:07;;;;;;;24.05;19.75;;;16.40;99.90;;;;;;5041034;28;20036;-74
2023/08/06 07:51:33;;;;;;;26.27;19.90;;;16.40;99.90;;;;;;5043082;28;20502;-76
2023/08/06 07:53:58;;;;;;;27.65;21.00;;;16.40;99.90;;;;;;5046647;28;20025;-75
2023/08/06 07:56:24;;;;;;;30.92;21.70;;;16.50;99.90;;;;;;5052937;28;20404;-75
2023/08/06 07:58:49;;;;;;;28.40;20.33;;;16.50;99.90;;;;;;5063557;28;20024;-74
2023/08/06 08:01:15;;;;;;;27.30;20.58;;;16.60;99.90;;;;;;5049152;28;20075;-74
2023/08/06 08:03:40;;;;;;;23.67;19.55;;;16.60;99.90;;;;;;5040456;28;20124;-74
2023/08/06 08:06:06;;;;;;;26.40;20.17;;;16.70;99.90;;;;;;5042972;28;20055;-74
2023/08/06 08:08:31;;;;;;;28.27;20.65;;;16.80;99.90;;;;;;5042606;28;20029;-75
2023/08/06 08:10:58;;;;;;;27.70;21.40;;;16.90;99.90;;;;;;5041562;28;20115;-75
2023/08/06 08:13:24;;;;;;;26.58;19.65;;;16.80;99.90;;;;;;5041893;28;20021;-74
2023/08/06 08:15:50;;;;;;;27.73;20.85;;;16.90;99.90;;;;;;5042545;28;20381;-75
2023/08/06 08:18:15;;;;;;;30.70;21.30;;;16.80;99.90;;;;;;5036482;28;20481;-74
2023/08/06 08:20:41;;;;;;;36.90;21.10;;;16.80;99.90;;;;;;5039863;28;20021;-75
2023/08/06 08:23:07;;;;;;;29.90;22.30;;;16.80;99.90;;;;;;5044701;28;20025;-74
2023/08/06 08:25:34;;;;;;;32.55;22.48;;;16.90;99.90;;;;;;5043378;28;20041;-74
2023/08/06 08:27:59;;;;;;;31.13;21.88;;;16.80;99.90;;;;;;5041529;28;20028;-74
2023/08/06 08:30:25;;;;;;;27.13;21.40;;;16.80;99.90;;;;;;5042477;28;20029;-75
2023/08/06 08:32:50;;;;;;;26.98;20.55;;;16.90;99.90;;;;;;5042966;28;20025;-74
2023/08/06 08:35:16;;;;;;;20.55;17.02;;;16.80;99.90;;;;;;5031013;28;20140;-74
2023/08/06 08:37:43;;;;;;;19.60;12.85;;;16.80;99.90;;;;;;5048397;28;20025;-74
2023/08/06 08:40:09;;;;;;;7.65;5.32;;;16.60;99.90;;;;;;5045385;28;20033;-74
2023/08/06 08:42:36;;;;;;;4.93;2.33;;;16.50;99.90;;;;;;5047389;28;20108;-74
2023/08/06 08:45:04;;;;;;;4.70;1.52;;;16.20;99.90;;;;;;5051066;28;20556;-74
2023/08/06 08:47:31;;;;;;;1.40;0.70;;;15.90;99.90;;;;;;5050001;28;20071;-74
2023/08/06 08:49:57;;;;;;;1.80;0.60;;;15.70;99.90;;;;;;5045004;28;20384;-74
2023/08/06 08:52:27;;;;;;;1.90;0.82;;;15.50;99.90;;;;;;5052855;28;20039;-74
2023/08/06 08:54:53;;;;;;;2.33;0.70;;;15.40;99.90;;;;;;5046839;28;20342;-73
2023/08/06 08:57:20;;;;;;;1.20;0.60;;;15.30;99.90;;;;;;5054884;28;20024;-74
2023/08/06 08:59:46;;;;;;;1.88;0.70;;;15.30;99.90;;;;;;5045287;28;20029;-73
2023/08/06 09:02:13;;;;;;;1.80;0.50;;;15.30;99.90;;;;;;5041552;28;20049;-74
2023/08/06 09:04:40;;;;;;;2.67;0.68;;;15.30;99.90;;;;;;5030256;28;20228;-73
2023/08/06 09:07:10;;;;;;;1.20;0.70;;;15.20;99.90;;;;;;5043580;28;20029;-73
2023/08/06 09:09:37;;;;;;;2.35;0.98;;;15.10;99.90;;;;;;5041983;28;20121;-73
2023/08/06 09:12:13;;;;;;;1.95;1.27;;;15.00;99.90;;;;;;5040924;28;20051;-73
2023/08/06 09:14:39;;;;;;;2.55;1.45;;;14.80;99.90;;;;;;5046443;28;20713;-75
2023/08/06 09:17:05;;;;;;;4.38;1.80;;;14.60;99.90;;;;;;5052772;28;20043;-74
2023/08/06 09:19:31;;;;;;;2.80;1.60;;;14.50;99.90;;;;;;5043806;28;20091;-75
2023/08/06 09:21:59;;;;;;;3.05;2.00;;;14.40;99.90;;;;;;5046086;28;20032;-76
2023/08/06 09:24:26;;;;;;;2.60;1.52;;;14.40;99.90;;;;;;5048755;28;20048;-74
2023/08/06 09:26:51;;;;;;;3.35;2.28;;;14.30;99.90;;;;;;5048012;28;20043;-74
2023/08/06 09:29:17;;;;;;;3.05;2.38;;;14.30;99.90;;;;;;5052950;28;20025;-74
2023/08/06 09:31:44;;;;;;;3.03;2.05;;;14.20;99.90;;;;;;5051394;28;20028;-74
2023/08/06 09:34:19;;;;;;;3.67;2.22;;;14.20;99.90;;;;;;5050428;28;20075;-74
2023/08/06 09:36:53;;;;;;;3.42;2.25;;;14.20;99.90;;;;;;5045718;28;20688;-74
2023/08/06 09:39:20;;;;;;;3.85;2.50;;;14.20;99.90;;;;;;5045284;28;20041;-74
2023/08/06 09:41:49;;;;;;;4.85;2.78;;;14.20;99.90;;;;;;5050891;28;20084;-74
2023/08/06 09:44:19;;;;;;;3.65;2.60;;;14.20;99.90;;;;;;5050470;28;20033;-74
2023/08/06 09:46:49;;;;;;;4.55;2.75;;;14.20;99.90;;;;;;5048359;28;20127;-74
2023/08/06 09:49:15;;;;;;;3.90;2.22;;;14.20;99.90;;;;;;5045836;28;20108;-74
2023/08/06 09:51:41;;;;;;;5.97;3.10;;;14.20;99.90;;;;;;5040661;28;20126;-74
2023/08/06 09:54:08;;;;;;;5.80;3.38;;;14.20;99.90;;;;;;5044423;28;20021;-74
2023/08/06 09:56:37;;;;;;;5.38;3.47;;;14.20;99.90;;;;;;5041821;28;21560;-74
2023/08/06 09:59:04;;;;;;;4.60;3.35;;;14.20;99.90;;;;;;5028953;28;20033;-74
2023/08/06 10:01:33;;;;;;;6.63;3.95;;;14.20;99.90;;;;;;5049280;28;20147;-74
2023/08/06 10:03:59;;;;;;;7.03;4.43;;;14.20;99.90;;;;;;5038829;28;20014;-74
2023/08/06 10:06:26;;;;;;;9.52;5.60;;;14.20;99.90;;;;;;5029440;28;20067;-74
2023/08/06 10:08:51;;;;;;;7.68;5.22;;;14.20;99.90;;;;;;5044767;28;20031;-75
2023/08/06 10:11:18;;;;;;;8.13;6.00;;;14.20;99.90;;;;;;5043220;28;20109;-75
2023/08/06 10:13:44;;;;;;;8.77;6.25;;;14.20;99.90;;;;;;5044464;28;20138;-74
2023/08/06 10:16:10;;;;;;;12.77;7.55;;;14.30;99.90;;;;;;5042461;28;20436;-74
2023/08/06 10:18:38;;;;;;;9.57;6.70;;;14.30;99.90;;;;;;5039491;28;20072;-74
2023/08/06 10:21:08;;;;;;;11.98;7.53;;;14.40;99.90;;;;;;5045070;28;20037;-74
2023/08/06 10:23:35;;;;;;;11.43;8.00;;;14.40;99.90;;;;;;5040272;28;20449;-74
2023/08/06 10:26:01;;;;;;;12.65;7.53;;;14.50;99.90;;;;;;5043650;28;20044;-74
2023/08/06 10:28:37;;;;;;;11.52;7.93;;;14.50;99.90;;;;;;5045490;28;20029;-75
2023/08/06 10:31:06;;;;;;;9.20;7.25;;;14.60;99.90;;;;;;5042612;28;20370;-74
2023/08/06 10:33:46;;;;;;;12.13;7.80;;;14.60;99.90;;;;;;5039236;28;20025;-74
2023/08/06 10:36:12;;;;;;;11.02;8.25;;;14.70;99.90;;;;;;5042757;28;20108;-74
2023/08/06 10:38:50;;;;;;;12.93;9.35;;;14.60;99.90;;;;;;5043769;28;20486;-74
2023/08/06 10:41:22;;;;;;;12.88;8.98;;;14.70;99.90;;;;;;5041052;28;20461;-74
2023/08/06 10:43:48;;;;;;;13.85;9.27;;;14.70;99.90;;;;;;5039171;28;20032;-74
2023/08/06 10:46:43;;;;;;;12.50;7.95;;;14.70;99.90;;;;;;5048292;28;20037;-74
2023/08/06 10:49:10;;;;;;;11.90;7.30;;;14.80;99.90;;;;;;5028265;28;20041;-74
2023/08/06 10:51:37;;;;;;;10.85;6.93;;;14.80;99.90;;;;;;5043886;28;20064;-74
2023/08/06 10:54:02;;;;;;;13.07;7.15;;;14.90;99.90;;;;;;5039632;28;20056;-74
2023/08/06 10:56:28;;;;;;;9.25;6.85;;;14.90;99.90;;;;;;5041482;28;20481;-74
2023/08/06 10:58:56;;;;;;;13.90;7.18;;;14.90;99.90;;;;;;5042417;28;20033;-74
2023/08/06 11:01:22;;;;;;;9.40;6.53;;;14.90;99.90;;;;;;5043921;28;20040;-73
2023/08/06 11:03:50;;;;;;;10.93;7.30;;;14.90;99.90;;;;;;5042699;28;20044;-74
2023/08/06 11:06:19;;;;;;;11.98;6.93;;;14.90;99.90;;;;;;5041369;28;20041;-74
2023/08/06 11:08:53;;;;;;;13.30;8.23;;;15.00;99.90;;;;;;5042747;28;20156;-74
2023/08/06 11:11:19;;;;;;;11.07;7.30;;;15.10;99.90;;;;;;5044491;28;20021;-74
2023/08/06 11:13:49;;;;;;;13.00;8.70;;;15.00;99.90;;;;;;5025913;28;20029;-74
2023/08/06 11:16:17;;;;;;;11.82;8.23;;;15.00;99.90;;;;;;5043406;28;20033;-74
2023/08/06 11:18:42;;;;;;;15.35;8.45;;;15.00;99.90;;;;;;5042205;28;20022;-74
2023/08/06 11:21:08;;;;;;;12.45;7.28;;;15.00;99.90;;;;;;5043572;28;20052;-74
2023/08/06 11:23:35;;;;;;;9.15;5.55;;;15.00;99.90;;;;;;5030378;28;20048;-74
2023/08/06 11:26:01;;;;;;;8.63;5.22;;;15.00;99.90;;;;;;5042849;28;20029;-74
2023/08/06 11:28:26;;;;;;;9.02;5.20;;;14.90;99.90;;;;;;5044182;28;20075;-74
2023/08/06 11:30:52;;;;;;;10.95;5.78;;;14.90;99.90;;;;;;5043597;28;20040;-73
2023/08/06 11:33:28;;;;;;;11.50;5.07;;;14.90;99.90;;;;;;5043996;28;20087;-73
2023/08/06 11:35:58;;;;;;;9.15;5.55;;;14.90;99.90;;;;;;5045280;28;20033;-74
2023/08/06 11:38:28;;;;;;;9.40;5.30;;;14.80;99.90;;;;;;5042722;28;20025;-74
2023/08/06 11:40:54;;;;;;;9.23;4.90;;;14.90;99.90;;;;;;5039355;28;20564;-74
2023/08/06 11:43:23;;;;;;;6.63;4.38;;;14.90;99.90;;;;;;5034934;28;20116;-74
2023/08/06 11:45:50;;;;;;;13.13;4.85;;;14.80;99.90;;;;;;5037431;28;20033;-73
2023/08/06 11:48:16;;;;;;;8.05;4.65;;;14.80;99.90;;;;;;5039947;28;20021;-74
2023/08/06 11:50:42;;;;;;;10.60;3.78;;;14.80;99.90;;;;;;5046870;28;20025;-75
2023/08/06 11:53:11;;;;;;;10.10;4.40;;;14.80;99.90;;;;;;5046158;28;20031;-74
2023/08/06 11:55:37;;;;;;;6.95;4.50;;;14.90;99.90;;;;;;5042654;28;20380;-74
2023/08/06 11:58:06;;;;;;;10.50;4.30;;;14.80;99.90;;;;;;5044447;28;20033;-74
2023/08/06 12:00:32;;;;;;;7.22;4.38;;;14.90;99.90;;;;;;5045682;28;20120;-75
2023/08/06 12:02:58;;;;;;;13.05;5.88;;;14.90;99.90;;;;;;5043652;28;20121;-75
2023/08/06 12:05:29;;;;;;;8.43;5.25;;;14.90;99.90;;;;;;5044268;28;20463;-74
2023/08/06 12:07:59;;;;;;;6.57;4.55;;;15.00;99.90;;;;;;5044055;28;20077;-74
2023/08/06 12:10:27;;;;;;;9.80;4.53;;;15.00;99.90;;;;;;5043984;28;20492;-75
2023/08/06 12:12:53;;;;;;;11.55;4.38;;;15.00;99.90;;;;;;5044906;28;20023;-74
2023/08/06 12:15:19;;;;;;;7.28;5.10;;;15.10;99.90;;;;;;5042193;28;20052;-74
2023/08/06 12:17:45;;;;;;;9.48;4.70;;;15.10;99.90;;;;;;5026666;28;20083;-74
2023/08/06 12:20:10;;;;;;;8.30;4.55;;;15.00;99.90;;;;;;5041290;28;20036;-74
2023/08/06 12:22:38;;;;;;;9.55;4.68;;;15.10;99.90;;;;;;5043325;28;20124;-74
2023/08/06 12:25:07;;;;;;;8.27;4.97;;;15.10;99.90;;;;;;5044868;28;20128;-74
2023/08/06 12:27:34;;;;;;;9.07;4.38;;;15.10;99.90;;;;;;5042786;28;20083;-74
2023/08/06 12:30:00;;;;;;;7.50;4.45;;;15.10;99.90;;;;;;5045453;28;20381;-74
2023/08/06 12:32:25;;;;;;;8.32;3.70;;;15.10;99.90;;;;;;5042448;28;20033;-74
2023/08/06 12:34:51;;;;;;;9.15;4.78;;;15.00;99.90;;;;;;5045483;28;20017;-74
2023/08/06 12:37:17;;;;;;;8.07;4.25;;;15.00;99.90;;;;;;5046056;28;20091;-74